KCLW

Clearwater Airpark

Clearwater, Florida, USA
METAR KCLW 140435Z AUTO 00000KT 10SM CLR 22/22 A3006 RMK AO2
Observed Flight Rules
Nov-14 @ 04:35 UTC (13 minutes ago) Visual Flight Rules
Visibility Clouds
10 miles
  • Clear skies
Temperatures Readings
Current 22°C / 72°F
Dewpoint 22°C / 72°F
Humidity 100%
Altimeter 30.06" Hg
Pressure 1018 hPa
Elevation 22
METAR KCLW 140435Z AUTO 00000KT 10SM CLR 22/22 A3006 RMK AO2
Observed Flight Rules
Nov-14 @ 04:35 UTC
(13 minutes ago)
VFR
Clouds
  • Clear skies
Temperature Dewpoint
22°C / 72°F 22°C / 72°F
Humidity Altimeter Pressure
100% 30.06" Hg 1018 hPa